D/T METAR WX W/DIR W/SPE G/SPE TEMP DEWP
25/02/20 14:30 EINN 251430Z 27023G35KT 9999 FEW009 SCT018CB BKN035 04/01 Q0999 NOSIG W (270°) 26.5mph 40.3mph 4°C 1°C
25/02/20 14:00 EINN 251400Z 26021G39KT 7000 -SHRAGR FEW009 SCT018CB BKN030 04/M00 Q0999 NOSIG -SHRA -SHGR W (260°) 24.2mph 44.9mph 4°C 0°C
25/02/20 13:30 EINN 251330Z 27021G32KT 9999 FEW009 SCT018CB 05/01 Q0999 NOSIG W (270°) 24.2mph 36.8mph 5°C 1°C
25/02/20 13:00 EINN 251300Z 27021KT 9999 FEW009 BKN018CB 05/00 Q0999 RESHGR NOSIG W (270°) 24.2mph 5°C 0°C
25/02/20 12:30 EINN 251230Z 26022KT 8000 -SHGRRA FEW009 BKN018CB 05/00 Q0999 NOSIG -SHGR -SHRA W (260°) 25.3mph 5°C 0°C
25/02/20 12:00 EINN 251200Z 26021KT 9999 FEW009 SCT018CB 05/00 Q0999 NOSIG W (260°) 24.2mph 5°C 0°C
25/02/20 11:30 EINN 251130Z 27027G39KT 9999 -SHRA FEW009 BKN018CB BKN040 04/01 Q0999 NOSIG -SHRA W (270°) 31.1mph 44.9mph 4°C 1°C
25/02/20 11:00 EINN 251100Z 27011KT 9999 FEW009 BKN018CB BKN035 04/02 Q0999 NOSIG W (270°) 12.7mph 4°C 2°C
25/02/20 10:30 EINN 251030Z 27014KT 9999 -SHRA FEW009 BKN018CB BKN035 04/02 Q1000 NOSIG -SHRA W (270°) 16.1mph 4°C 2°C
25/02/20 10:00 EINN 251000Z 25012KT 8000 -SHRA FEW009 BKN018CB BKN035 03/02 Q0999 NOSIG -SHRA WSW (250°) 13.8mph 3°C 2°C
25/02/20 09:30 EINN 250930Z 24013KT 8000 -SHRA SCT012 BKN018CB BKN037 03/02 Q0999 NOSIG -SHRA WSW (240°) 15.0mph 3°C 2°C
25/02/20 09:00 EINN 250900Z 22015KT 9999 FEW014 SCT019CB BKN042 04/02 Q1000 NOSIG SW (220°) 17.3mph 4°C 2°C
25/02/20 08:30 EINN 250830Z 25017G28KT 9999 FEW012 SCT018CB BKN047 04/02 Q1000 NOSIG WSW (250°) 19.6mph 32.2mph 4°C 2°C
25/02/20 08:00 EINN 250800Z 04002KT 9999 FEW012 FEW018CB SCT046 BKN140 04/02 Q1000 NOSIG NE (40°) 2.3mph 4°C 2°C
25/02/20 07:30 EINN 250730Z 23005KT 9999 FEW018CB BKN120 04/02 Q1000 NOSIG SW (230°) 5.8mph 4°C 2°C
25/02/20 07:00 EINN 250700Z 26005KT 9999 FEW018CB SCT080 04/02 Q1001 NOSIG W (260°) 5.8mph 4°C 2°C
25/02/20 06:30 EINN 250630Z 23007KT 9999 FEW020CB SCT110 03/02 Q1001 NOSIG SW (230°) 8.1mph 3°C 2°C
25/02/20 06:00 EINN 250600Z 24009KT 9999 FEW020CB SCT090 03/02 Q1002 NOSIG WSW (240°) 10.4mph 3°C 2°C
25/02/20 05:30 EINN 250530Z 25012KT 9999 -SHRA FEW012 SCT018CB BKN030 03/02 Q1002 NOSIG -SHRA WSW (250°) 13.8mph 3°C 2°C
25/02/20 05:00 EINN 250500Z 24008KT 9999 FEW012 FEW018CB BKN140 04/02 Q1002 NOSIG WSW (240°) 9.2mph 4°C 2°C
25/02/20 04:30 EINN 250430Z 25008KT 9999 -SHRA FEW012 BKN018CB BKN036 03/02 Q1002 NOSIG -SHRA WSW (250°) 9.2mph 3°C 2°C
25/02/20 04:00 EINN 250400Z 23007KT 9999 FEW020 SCT100 04/02 Q1003 NOSIG SW (230°) 8.1mph 4°C 2°C
25/02/20 03:30 EINN 250330Z 25009KT 9999 -SHRA FEW020CB BKN060 04/02 Q1003 NOSIG -SHRA WSW (250°) 10.4mph 4°C 2°C
25/02/20 03:00 EINN 250300Z 24008KT 9999 -SHRA FEW020CB BKN060 04/02 Q1004 NOSIG -SHRA WSW (240°) 9.2mph 4°C 2°C
25/02/20 02:30 EINN 250230Z 25019G32KT 9999 FEW020CB BKN060 04/02 Q1004 NOSIG WSW (250°) 21.9mph 36.8mph 4°C 2°C
25/02/20 02:00 EINN 250200Z 23007KT 9999 FEW020CB BKN060 04/02 Q1004 NOSIG SW (230°) 8.1mph 4°C 2°C
25/02/20 01:30 EINN 250130Z 24009KT 9999 FEW020CB BKN060 04/02 Q1004 NOSIG WSW (240°) 10.4mph 4°C 2°C
25/02/20 01:00 EINN 250100Z 23010KT 9999 FEW020CB SCT060 04/02 Q1005 NOSIG SW (230°) 11.5mph 4°C 2°C
25/02/20 00:30 EINN 250030Z 24016KT 9999 FEW018CB SCT036 BKN080 05/03 Q1005 NOSIG WSW (240°) 18.4mph 5°C 3°C
25/02/20 00:00 EINN 250000Z 25017KT 9999 -SHRA FEW018CB SCT036 BKN070 05/03 Q1005 NOSIG -SHRA WSW (250°) 19.6mph 5°C 3°C
24/02/20 23:30 EINN 242330Z 26017KT 9999 -SHRA FEW022 BKN038 05/02 Q1006 NOSIG -SHRA W (260°) 19.6mph 5°C 2°C
24/02/20 23:00 EINN 242300Z 22010KT 9999 FEW036 SCT080 06/03 Q1005 NOSIG SW (220°) 11.5mph 6°C 3°C
24/02/20 22:30 EINN 242230Z 23006KT 9999 FEW022 SCT040 06/03 Q1006 NOSIG SW (230°) 6.9mph 6°C 3°C
24/02/20 22:00 EINN 242200Z 21006KT 9999 FEW022 SCT040 05/03 Q1006 NOSIG SSW (210°) 6.9mph 5°C 3°C
24/02/20 21:30 EINN 242130Z 22008KT 9999 FEW022 BKN036 06/04 Q1007 NOSIG SW (220°) 9.2mph 6°C 4°C
24/02/20 21:00 EINN 242100Z 23007KT 9999 FEW022 SCT036 05/03 Q1007 NOSIG SW (230°) 8.1mph 5°C 3°C
24/02/20 20:30 EINN 242030Z 22008KT 9999 -SHRA FEW018CB SCT022 05/03 Q1007 NOSIG -SHRA SW (220°) 9.2mph 5°C 3°C
24/02/20 20:00 EINN 242000Z 25009KT 9999 FEW020 SCT035 05/03 Q1007 NOSIG WSW (250°) 10.4mph 5°C 3°C
24/02/20 19:30 EINN 241930Z 26010KT 9999 FEW018CB SCT020 BKN030 06/03 Q1008 NOSIG W (260°) 11.5mph 6°C 3°C
24/02/20 19:00 EINN 241900Z 26007KT 9999 FEW020 06/02 Q1008 NOSIG W (260°) 8.1mph 6°C 2°C
24/02/20 18:30 EINN 241830Z 27009KT 9999 FEW020 06/03 Q1008 NOSIG W (270°) 10.4mph 6°C 3°C
24/02/20 18:00 EINN 241800Z 26011KT 9999 FEW018CB 06/03 Q1008 NOSIG W (260°) 12.7mph 6°C 3°C
24/02/20 17:30 EINN 241730Z 27012KT 9999 FEW018CB SCT024 06/03 Q1008 NOSIG W (270°) 13.8mph 6°C 3°C
24/02/20 17:00 EINN 241700Z 28024KT 9999 -SHRA FEW018CB SCT024 BKN040 08/04 Q1008 NOSIG -SHRA W (280°) 27.6mph 8°C 4°C
24/02/20 16:30 EINN 241630Z 27018G28KT 9999 -SHRA FEW018CB SCT046 07/04 Q1007 NOSIG -SHRA W (270°) 20.7mph 32.2mph 7°C 4°C
24/02/20 16:00 EINN 241600Z 27014KT 9999 FEW022 SCT030 08/06 Q1007 NOSIG W (270°) 16.1mph 8°C 6°C
24/02/20 15:30 EINN 241530Z 29018KT 9999 FEW018CB SCT038 09/04 Q1007 NOSIG WNW (290°) 20.7mph 9°C 4°C
24/02/20 15:00 EINN 241500Z 28021G31KT 9999 -SHRA FEW018CB SCT025 BKN060 09/04 Q1007 NOSIG -SHRA W (280°) 24.2mph 35.7mph 9°C 4°C